sensor_id;sensor_type;location;lat;lon;timestamp;P1;durP1;ratioP1;P2;durP2;ratioP2
8007;SDS011;4049;49.468;11.200;2023-04-19T00:02:00;10.47;;;6.33;;
8007;SDS011;4049;49.468;11.200;2023-04-19T00:04:27;13.73;;;7.23;;
8007;SDS011;4049;49.468;11.200;2023-04-19T00:06:54;12.33;;;7.07;;
8007;SDS011;4049;49.468;11.200;2023-04-19T00:09:22;9.67;;;6.47;;
8007;SDS011;4049;49.468;11.200;2023-04-19T00:11:49;11.83;;;7.07;;
8007;SDS011;4049;49.468;11.200;2023-04-19T00:14:19;9.90;;;6.23;;
8007;SDS011;4049;49.468;11.200;2023-04-19T00:16:45;10.37;;;6.77;;
8007;SDS011;4049;49.468;11.200;2023-04-19T00:19:14;11.87;;;6.97;;
8007;SDS011;4049;49.468;11.200;2023-04-19T00:21:40;10.37;;;6.63;;
8007;SDS011;4049;49.468;11.200;2023-04-19T00:24:07;11.73;;;6.80;;
8007;SDS011;4049;49.468;11.200;2023-04-19T00:26:34;11.77;;;7.13;;
8007;SDS011;4049;49.468;11.200;2023-04-19T00:29:01;10.43;;;6.50;;
8007;SDS011;4049;49.468;11.200;2023-04-19T00:31:28;11.47;;;6.70;;
8007;SDS011;4049;49.468;11.200;2023-04-19T00:33:55;13.90;;;6.73;;
8007;SDS011;4049;49.468;11.200;2023-04-19T00:36:23;10.63;;;6.43;;
8007;SDS011;4049;49.468;11.200;2023-04-19T00:38:50;9.23;;;6.47;;
8007;SDS011;4049;49.468;11.200;2023-04-19T00:41:17;10.37;;;6.37;;
8007;SDS011;4049;49.468;11.200;2023-04-19T00:43:44;11.00;;;6.30;;
8007;SDS011;4049;49.468;11.200;2023-04-19T00:46:11;10.60;;;6.47;;
8007;SDS011;4049;49.468;11.200;2023-04-19T00:48:39;12.13;;;7.07;;
8007;SDS011;4049;49.468;11.200;2023-04-19T00:51:06;9.40;;;6.23;;
8007;SDS011;4049;49.468;11.200;2023-04-19T00:53:36;12.17;;;6.67;;
8007;SDS011;4049;49.468;11.200;2023-04-19T00:56:03;11.93;;;7.10;;
8007;SDS011;4049;49.468;11.200;2023-04-19T00:58:31;12.37;;;6.87;;
8007;SDS011;4049;49.468;11.200;2023-04-19T01:00:58;11.30;;;6.73;;
8007;SDS011;4049;49.468;11.200;2023-04-19T01:03:25;13.87;;;7.47;;
8007;SDS011;4049;49.468;11.200;2023-04-19T01:05:53;10.67;;;6.57;;
8007;SDS011;4049;49.468;11.200;2023-04-19T01:08:20;10.60;;;6.83;;
8007;SDS011;4049;49.468;11.200;2023-04-19T01:10:48;10.00;;;6.50;;
8007;SDS011;4049;49.468;11.200;2023-04-19T01:13:15;9.67;;;6.07;;
8007;SDS011;4049;49.468;11.200;2023-04-19T01:15:42;9.17;;;6.43;;
8007;SDS011;4049;49.468;11.200;2023-04-19T01:18:09;11.20;;;6.93;;
8007;SDS011;4049;49.468;11.200;2023-04-19T01:20:36;9.43;;;6.43;;
8007;SDS011;4049;49.468;11.200;2023-04-19T01:23:04;10.00;;;6.23;;
8007;SDS011;4049;49.468;11.200;2023-04-19T01:25:35;11.83;;;6.87;;
8007;SDS011;4049;49.468;11.200;2023-04-19T01:28:02;10.27;;;6.73;;
8007;SDS011;4049;49.468;11.200;2023-04-19T01:30:29;8.93;;;6.13;;
8007;SDS011;4049;49.468;11.200;2023-04-19T01:32:56;11.93;;;7.00;;
8007;SDS011;4049;49.468;11.200;2023-04-19T01:35:23;11.40;;;6.70;;
8007;SDS011;4049;49.468;11.200;2023-04-19T01:37:49;11.00;;;7.27;;
8007;SDS011;4049;49.468;11.200;2023-04-19T01:40:21;10.73;;;6.87;;
8007;SDS011;4049;49.468;11.200;2023-04-19T01:42:48;10.63;;;6.47;;
8007;SDS011;4049;49.468;11.200;2023-04-19T01:45:15;11.10;;;6.57;;
8007;SDS011;4049;49.468;11.200;2023-04-19T01:47:42;11.17;;;6.97;;
8007;SDS011;4049;49.468;11.200;2023-04-19T01:50:09;9.40;;;6.30;;
8007;SDS011;4049;49.468;11.200;2023-04-19T01:52:36;11.50;;;7.00;;
8007;SDS011;4049;49.468;11.200;2023-04-19T01:55:03;9.77;;;6.40;;
8007;SDS011;4049;49.468;11.200;2023-04-19T01:57:31;10.47;;;6.30;;
8007;SDS011;4049;49.468;11.200;2023-04-19T01:59:58;9.57;;;6.97;;
8007;SDS011;4049;49.468;11.200;2023-04-19T02:02:26;11.97;;;6.60;;
8007;SDS011;4049;49.468;11.200;2023-04-19T02:04:53;10.90;;;6.30;;
8007;SDS011;4049;49.468;11.200;2023-04-19T02:07:19;9.47;;;6.60;;
8007;SDS011;4049;49.468;11.200;2023-04-19T02:09:46;9.80;;;6.43;;
8007;SDS011;4049;49.468;11.200;2023-04-19T02:12:13;9.67;;;6.97;;
8007;SDS011;4049;49.468;11.200;2023-04-19T02:14:41;9.13;;;6.63;;
8007;SDS011;4049;49.468;11.200;2023-04-19T02:17:08;10.93;;;6.57;;
8007;SDS011;4049;49.468;11.200;2023-04-19T02:19:36;12.13;;;7.30;;
8007;SDS011;4049;49.468;11.200;2023-04-19T02:22:03;11.00;;;6.57;;
8007;SDS011;4049;49.468;11.200;2023-04-19T02:24:30;10.33;;;7.00;;
8007;SDS011;4049;49.468;11.200;2023-04-19T02:26:56;9.67;;;6.30;;
8007;SDS011;4049;49.468;11.200;2023-04-19T02:29:23;11.57;;;6.87;;
8007;SDS011;4049;49.468;11.200;2023-04-19T02:31:51;11.30;;;7.40;;
8007;SDS011;4049;49.468;11.200;2023-04-19T02:34:18;11.10;;;7.07;;
8007;SDS011;4049;49.468;11.200;2023-04-19T02:36:45;11.37;;;7.37;;
8007;SDS011;4049;49.468;11.200;2023-04-19T02:39:12;11.10;;;7.33;;
8007;SDS011;4049;49.468;11.200;2023-04-19T02:41:39;12.50;;;7.87;;
8007;SDS011;4049;49.468;11.200;2023-04-19T02:44:06;10.67;;;6.37;;
8007;SDS011;4049;49.468;11.200;2023-04-19T02:46:33;10.83;;;7.10;;
8007;SDS011;4049;49.468;11.200;2023-04-19T02:49:01;13.73;;;7.17;;
8007;SDS011;4049;49.468;11.200;2023-04-19T02:51:28;12.23;;;7.57;;
8007;SDS011;4049;49.468;11.200;2023-04-19T02:53:55;12.43;;;7.07;;
8007;SDS011;4049;49.468;11.200;2023-04-19T02:56:22;11.77;;;7.37;;
8007;SDS011;4049;49.468;11.200;2023-04-19T02:58:49;11.10;;;7.00;;
8007;SDS011;4049;49.468;11.200;2023-04-19T03:01:18;11.00;;;6.70;;
8007;SDS011;4049;49.468;11.200;2023-04-19T03:03:44;11.03;;;6.50;;
8007;SDS011;4049;49.468;11.200;2023-04-19T03:06:13;10.80;;;7.23;;
8007;SDS011;4049;49.468;11.200;2023-04-19T03:08:40;12.87;;;7.70;;
8007;SDS011;4049;49.468;11.200;2023-04-19T03:11:07;13.33;;;7.90;;
8007;SDS011;4049;49.468;11.200;2023-04-19T03:13:34;13.43;;;7.97;;
8007;SDS011;4049;49.468;11.200;2023-04-19T03:16:01;13.03;;;7.60;;
8007;SDS011;4049;49.468;11.200;2023-04-19T03:18:28;11.43;;;7.33;;
8007;SDS011;4049;49.468;11.200;2023-04-19T03:20:55;13.40;;;7.33;;
8007;SDS011;4049;49.468;11.200;2023-04-19T03:23:24;12.43;;;7.57;;
8007;SDS011;4049;49.468;11.200;2023-04-19T03:25:51;13.73;;;7.70;;
8007;SDS011;4049;49.468;11.200;2023-04-19T03:28:18;12.87;;;7.23;;
8007;SDS011;4049;49.468;11.200;2023-04-19T03:30:45;12.67;;;7.17;;
8007;SDS011;4049;49.468;11.200;2023-04-19T03:33:12;12.63;;;6.97;;
8007;SDS011;4049;49.468;11.200;2023-04-19T03:35:39;11.33;;;7.77;;
8007;SDS011;4049;49.468;11.200;2023-04-19T03:38:05;13.37;;;7.20;;
8007;SDS011;4049;49.468;11.200;2023-04-19T03:40:35;11.67;;;7.43;;
8007;SDS011;4049;49.468;11.200;2023-04-19T03:43:02;12.30;;;7.47;;
8007;SDS011;4049;49.468;11.200;2023-04-19T03:45:29;12.03;;;7.53;;
8007;SDS011;4049;49.468;11.200;2023-04-19T03:47:56;14.37;;;7.60;;
8007;SDS011;4049;49.468;11.200;2023-04-19T03:50:23;11.60;;;6.93;;
8007;SDS011;4049;49.468;11.200;2023-04-19T03:52:50;12.07;;;7.43;;
8007;SDS011;4049;49.468;11.200;2023-04-19T03:55:16;12.63;;;7.03;;
8007;SDS011;4049;49.468;11.200;2023-04-19T03:57:45;13.13;;;7.30;;
8007;SDS011;4049;49.468;11.200;2023-04-19T04:00:12;15.03;;;7.70;;
8007;SDS011;4049;49.468;11.200;2023-04-19T04:02:39;12.13;;;8.07;;
8007;SDS011;4049;49.468;11.200;2023-04-19T04:05:06;13.70;;;7.47;;
8007;SDS011;4049;49.468;11.200;2023-04-19T04:07:33;12.03;;;7.77;;
8007;SDS011;4049;49.468;11.200;2023-04-19T04:10:00;15.67;;;8.30;;
8007;SDS011;4049;49.468;11.200;2023-04-19T04:12:27;13.90;;;7.60;;
8007;SDS011;4049;49.468;11.200;2023-04-19T04:14:55;15.27;;;8.03;;
8007;SDS011;4049;49.468;11.200;2023-04-19T04:17:22;12.93;;;7.97;;
8007;SDS011;4049;49.468;11.200;2023-04-19T04:19:49;14.63;;;8.17;;
8007;SDS011;4049;49.468;11.200;2023-04-19T04:22:16;13.47;;;7.60;;
8007;SDS011;4049;49.468;11.200;2023-04-19T04:24:43;10.67;;;7.47;;
8007;SDS011;4049;49.468;11.200;2023-04-19T04:27:09;13.43;;;7.90;;
8007;SDS011;4049;49.468;11.200;2023-04-19T04:29:44;13.37;;;8.13;;
8007;SDS011;4049;49.468;11.200;2023-04-19T04:32:12;12.70;;;7.47;;
8007;SDS011;4049;49.468;11.200;2023-04-19T04:34:42;14.87;;;7.60;;
8007;SDS011;4049;49.468;11.200;2023-04-19T04:37:09;15.77;;;8.20;;
8007;SDS011;4049;49.468;11.200;2023-04-19T04:39:36;12.67;;;7.33;;
8007;SDS011;4049;49.468;11.200;2023-04-19T04:42:04;13.97;;;8.13;;
8007;SDS011;4049;49.468;11.200;2023-04-19T04:44:32;15.40;;;8.40;;
8007;SDS011;4049;49.468;11.200;2023-04-19T04:46:59;13.80;;;8.17;;
8007;SDS011;4049;49.468;11.200;2023-04-19T04:49:28;16.37;;;9.07;;
8007;SDS011;4049;49.468;11.200;2023-04-19T04:51:55;16.70;;;9.97;;
8007;SDS011;4049;49.468;11.200;2023-04-19T04:54:21;13.53;;;8.77;;
8007;SDS011;4049;49.468;11.200;2023-04-19T04:56:48;15.70;;;8.87;;
8007;SDS011;4049;49.468;11.200;2023-04-19T04:59:15;15.80;;;9.20;;
8007;SDS011;4049;49.468;11.200;2023-04-19T05:01:42;13.47;;;8.60;;
8007;SDS011;4049;49.468;11.200;2023-04-19T05:04:09;14.33;;;8.63;;
8007;SDS011;4049;49.468;11.200;2023-04-19T05:06:37;13.07;;;7.37;;
8007;SDS011;4049;49.468;11.200;2023-04-19T05:09:04;13.00;;;7.97;;
8007;SDS011;4049;49.468;11.200;2023-04-19T05:11:31;15.90;;;8.47;;
8007;SDS011;4049;49.468;11.200;2023-04-19T05:13:58;15.10;;;8.37;;
8007;SDS011;4049;49.468;11.200;2023-04-19T05:16:25;14.40;;;8.13;;
8007;SDS011;4049;49.468;11.200;2023-04-19T05:18:52;15.80;;;8.77;;
8007;SDS011;4049;49.468;11.200;2023-04-19T05:21:19;14.20;;;8.50;;
8007;SDS011;4049;49.468;11.200;2023-04-19T05:23:48;15.00;;;8.97;;
8007;SDS011;4049;49.468;11.200;2023-04-19T05:26:17;15.73;;;8.13;;
8007;SDS011;4049;49.468;11.200;2023-04-19T05:28:44;16.37;;;9.17;;
8007;SDS011;4049;49.468;11.200;2023-04-19T05:31:11;15.80;;;10.00;;
8007;SDS011;4049;49.468;11.200;2023-04-19T05:33:38;19.10;;;9.73;;
8007;SDS011;4049;49.468;11.200;2023-04-19T05:36:05;17.10;;;9.13;;
8007;SDS011;4049;49.468;11.200;2023-04-19T05:38:32;16.80;;;9.77;;
8007;SDS011;4049;49.468;11.200;2023-04-19T05:41:00;16.60;;;9.40;;
8007;SDS011;4049;49.468;11.200;2023-04-19T05:43:27;17.80;;;9.20;;
8007;SDS011;4049;49.468;11.200;2023-04-19T05:45:54;14.00;;;8.30;;
8007;SDS011;4049;49.468;11.200;2023-04-19T05:48:21;15.30;;;8.53;;
8007;SDS011;4049;49.468;11.200;2023-04-19T05:50:49;16.67;;;8.63;;
8007;SDS011;4049;49.468;11.200;2023-04-19T05:53:18;16.97;;;8.10;;
8007;SDS011;4049;49.468;11.200;2023-04-19T05:55:45;13.87;;;8.60;;
8007;SDS011;4049;49.468;11.200;2023-04-19T05:58:13;17.90;;;9.27;;
8007;SDS011;4049;49.468;11.200;2023-04-19T06:00:40;19.27;;;10.60;;
8007;SDS011;4049;49.468;11.200;2023-04-19T06:03:07;15.40;;;9.37;;
8007;SDS011;4049;49.468;11.200;2023-04-19T06:05:35;14.50;;;9.20;;
8007;SDS011;4049;49.468;11.200;2023-04-19T06:08:01;19.03;;;9.70;;
8007;SDS011;4049;49.468;11.200;2023-04-19T06:10:29;23.40;;;11.27;;
8007;SDS011;4049;49.468;11.200;2023-04-19T06:12:55;15.97;;;9.77;;
8007;SDS011;4049;49.468;11.200;2023-04-19T06:15:23;18.00;;;10.57;;
8007;SDS011;4049;49.468;11.200;2023-04-19T06:17:51;21.77;;;11.13;;
8007;SDS011;4049;49.468;11.200;2023-04-19T06:20:17;21.00;;;11.67;;
8007;SDS011;4049;49.468;11.200;2023-04-19T06:22:45;18.60;;;10.60;;
8007;SDS011;4049;49.468;11.200;2023-04-19T06:25:13;16.03;;;9.67;;
8007;SDS011;4049;49.468;11.200;2023-04-19T06:27:40;14.17;;;9.53;;
8007;SDS011;4049;49.468;11.200;2023-04-19T06:30:07;18.63;;;10.57;;
8007;SDS011;4049;49.468;11.200;2023-04-19T06:32:36;18.43;;;11.07;;
8007;SDS011;4049;49.468;11.200;2023-04-19T06:35:03;17.13;;;9.40;;
8007;SDS011;4049;49.468;11.200;2023-04-19T06:37:32;15.03;;;8.97;;
8007;SDS011;4049;49.468;11.200;2023-04-19T06:39:58;13.57;;;8.67;;
8007;SDS011;4049;49.468;11.200;2023-04-19T06:42:25;22.00;;;12.13;;
8007;SDS011;4049;49.468;11.200;2023-04-19T06:44:53;24.20;;;13.93;;
8007;SDS011;4049;49.468;11.200;2023-04-19T06:47:21;19.27;;;11.37;;
8007;SDS011;4049;49.468;11.200;2023-04-19T06:49:49;16.67;;;9.70;;
8007;SDS011;4049;49.468;11.200;2023-04-19T06:52:16;13.87;;;8.57;;
8007;SDS011;4049;49.468;11.200;2023-04-19T06:54:45;21.13;;;12.53;;
8007;SDS011;4049;49.468;11.200;2023-04-19T06:57:13;21.07;;;11.10;;
8007;SDS011;4049;49.468;11.200;2023-04-19T06:59:40;15.80;;;10.23;;
8007;SDS011;4049;49.468;11.200;2023-04-19T07:02:07;21.07;;;11.77;;
8007;SDS011;4049;49.468;11.200;2023-04-19T07:04:34;16.93;;;9.60;;
8007;SDS011;4049;49.468;11.200;2023-04-19T07:07:02;17.90;;;10.43;;
8007;SDS011;4049;49.468;11.200;2023-04-19T07:09:29;14.23;;;8.73;;
8007;SDS011;4049;49.468;11.200;2023-04-19T07:11:56;17.20;;;9.87;;
8007;SDS011;4049;49.468;11.200;2023-04-19T07:14:23;17.17;;;10.17;;
8007;SDS011;4049;49.468;11.200;2023-04-19T07:16:50;25.00;;;13.53;;
8007;SDS011;4049;49.468;11.200;2023-04-19T07:19:17;15.90;;;9.77;;
8007;SDS011;4049;49.468;11.200;2023-04-19T07:21:44;33.30;;;17.27;;
8007;SDS011;4049;49.468;11.200;2023-04-19T07:24:12;16.43;;;9.57;;
8007;SDS011;4049;49.468;11.200;2023-04-19T07:26:40;18.83;;;10.40;;
8007;SDS011;4049;49.468;11.200;2023-04-19T07:29:07;18.97;;;10.53;;
8007;SDS011;4049;49.468;11.200;2023-04-19T07:31:35;17.13;;;10.50;;
8007;SDS011;4049;49.468;11.200;2023-04-19T07:34:02;14.07;;;8.87;;
8007;SDS011;4049;49.468;11.200;2023-04-19T07:36:29;17.67;;;10.60;;
8007;SDS011;4049;49.468;11.200;2023-04-19T07:38:56;16.37;;;10.10;;
8007;SDS011;4049;49.468;11.200;2023-04-19T07:41:24;18.27;;;10.77;;
8007;SDS011;4049;49.468;11.200;2023-04-19T07:43:51;17.17;;;10.13;;
8007;SDS011;4049;49.468;11.200;2023-04-19T07:46:17;19.17;;;11.00;;
8007;SDS011;4049;49.468;11.200;2023-04-19T07:48:44;20.93;;;11.87;;
8007;SDS011;4049;49.468;11.200;2023-04-19T07:51:11;19.20;;;10.27;;
8007;SDS011;4049;49.468;11.200;2023-04-19T07:53:40;17.67;;;9.77;;
8007;SDS011;4049;49.468;11.200;2023-04-19T07:56:08;16.00;;;10.07;;
8007;SDS011;4049;49.468;11.200;2023-04-19T07:58:37;18.93;;;10.53;;
8007;SDS011;4049;49.468;11.200;2023-04-19T08:01:05;15.67;;;9.50;;
8007;SDS011;4049;49.468;11.200;2023-04-19T08:03:32;17.80;;;9.63;;
8007;SDS011;4049;49.468;11.200;2023-04-19T08:06:00;18.30;;;10.53;;
8007;SDS011;4049;49.468;11.200;2023-04-19T08:08:29;19.70;;;11.23;;
8007;SDS011;4049;49.468;11.200;2023-04-19T08:10:56;17.27;;;10.30;;
8007;SDS011;4049;49.468;11.200;2023-04-19T08:13:23;17.43;;;9.87;;
8007;SDS011;4049;49.468;11.200;2023-04-19T08:15:51;24.23;;;12.37;;
8007;SDS011;4049;49.468;11.200;2023-04-19T08:18:18;23.67;;;13.13;;
8007;SDS011;4049;49.468;11.200;2023-04-19T08:20:44;25.57;;;14.07;;
8007;SDS011;4049;49.468;11.200;2023-04-19T08:23:11;28.27;;;14.40;;
8007;SDS011;4049;49.468;11.200;2023-04-19T08:25:38;30.03;;;15.13;;
8007;SDS011;4049;49.468;11.200;2023-04-19T08:28:05;28.40;;;15.57;;
8007;SDS011;4049;49.468;11.200;2023-04-19T08:30:32;24.87;;;14.13;;
8007;SDS011;4049;49.468;11.200;2023-04-19T08:33:00;27.10;;;14.80;;
8007;SDS011;4049;49.468;11.200;2023-04-19T08:35:27;26.90;;;14.37;;
8007;SDS011;4049;49.468;11.200;2023-04-19T08:37:54;32.90;;;19.77;;
8007;SDS011;4049;49.468;11.200;2023-04-19T08:40:21;26.20;;;15.80;;
8007;SDS011;4049;49.468;11.200;2023-04-19T08:42:49;32.10;;;18.00;;
8007;SDS011;4049;49.468;11.200;2023-04-19T08:45:15;23.00;;;13.43;;
8007;SDS011;4049;49.468;11.200;2023-04-19T08:47:44;29.30;;;14.07;;
8007;SDS011;4049;49.468;11.200;2023-04-19T08:50:14;22.87;;;13.80;;
8007;SDS011;4049;49.468;11.200;2023-04-19T08:52:42;26.90;;;14.17;;
8007;SDS011;4049;49.468;11.200;2023-04-19T08:55:10;25.13;;;13.90;;
8007;SDS011;4049;49.468;11.200;2023-04-19T08:57:37;23.53;;;12.90;;
8007;SDS011;4049;49.468;11.200;2023-04-19T09:00:04;24.37;;;13.40;;
8007;SDS011;4049;49.468;11.200;2023-04-19T09:02:44;22.50;;;13.97;;
8007;SDS011;4049;49.468;11.200;2023-04-19T09:05:14;22.80;;;13.40;;
8007;SDS011;4049;49.468;11.200;2023-04-19T09:07:43;24.07;;;12.73;;
8007;SDS011;4049;49.468;11.200;2023-04-19T09:10:11;19.57;;;12.97;;
8007;SDS011;4049;49.468;11.200;2023-04-19T09:12:39;19.77;;;12.93;;
8007;SDS011;4049;49.468;11.200;2023-04-19T09:15:06;20.53;;;12.47;;
8007;SDS011;4049;49.468;11.200;2023-04-19T09:17:34;19.77;;;11.97;;
8007;SDS011;4049;49.468;11.200;2023-04-19T09:20:02;21.20;;;13.00;;
8007;SDS011;4049;49.468;11.200;2023-04-19T09:22:32;21.40;;;12.73;;
8007;SDS011;4049;49.468;11.200;2023-04-19T09:24:59;22.30;;;13.20;;
8007;SDS011;4049;49.468;11.200;2023-04-19T09:27:27;23.73;;;12.40;;
8007;SDS011;4049;49.468;11.200;2023-04-19T09:29:54;22.27;;;12.90;;
8007;SDS011;4049;49.468;11.200;2023-04-19T09:32:22;20.10;;;11.20;;
8007;SDS011;4049;49.468;11.200;2023-04-19T09:34:50;19.60;;;11.03;;
8007;SDS011;4049;49.468;11.200;2023-04-19T09:37:18;17.60;;;11.27;;
8007;SDS011;4049;49.468;11.200;2023-04-19T09:39:46;17.57;;;10.57;;
8007;SDS011;4049;49.468;11.200;2023-04-19T09:42:13;19.80;;;11.03;;
8007;SDS011;4049;49.468;11.200;2023-04-19T09:44:41;19.97;;;10.53;;
8007;SDS011;4049;49.468;11.200;2023-04-19T09:47:20;16.47;;;10.63;;
8007;SDS011;4049;49.468;11.200;2023-04-19T09:50:02;16.23;;;8.67;;
8007;SDS011;4049;49.468;11.200;2023-04-19T09:52:33;16.40;;;8.40;;
8007;SDS011;4049;49.468;11.200;2023-04-19T09:55:02;15.67;;;8.43;;
8007;SDS011;4049;49.468;11.200;2023-04-19T09:57:31;14.30;;;7.97;;
8007;SDS011;4049;49.468;11.200;2023-04-19T09:59:59;13.63;;;8.03;;
8007;SDS011;4049;49.468;11.200;2023-04-19T10:02:31;13.73;;;8.07;;
8007;SDS011;4049;49.468;11.200;2023-04-19T10:04:59;13.60;;;8.03;;
8007;SDS011;4049;49.468;11.200;2023-04-19T10:07:26;15.20;;;7.97;;
8007;SDS011;4049;49.468;11.200;2023-04-19T10:09:56;13.23;;;7.70;;
8007;SDS011;4049;49.468;11.200;2023-04-19T10:12:26;15.47;;;8.00;;
8007;SDS011;4049;49.468;11.200;2023-04-19T10:14:53;11.77;;;7.23;;
8007;SDS011;4049;49.468;11.200;2023-04-19T10:17:22;10.20;;;6.10;;
8007;SDS011;4049;49.468;11.200;2023-04-19T10:19:51;9.27;;;6.50;;
8007;SDS011;4049;49.468;11.200;2023-04-19T10:22:22;11.27;;;6.40;;
8007;SDS011;4049;49.468;11.200;2023-04-19T10:25:09;9.30;;;6.23;;
8007;SDS011;4049;49.468;11.200;2023-04-19T10:27:38;10.53;;;6.13;;
8007;SDS011;4049;49.468;11.200;2023-04-19T10:30:06;8.03;;;6.07;;
8007;SDS011;4049;49.468;11.200;2023-04-19T10:32:43;10.20;;;5.73;;
8007;SDS011;4049;49.468;11.200;2023-04-19T10:35:15;10.60;;;6.43;;
8007;SDS011;4049;49.468;11.200;2023-04-19T10:43:27;8.60;;;5.40;;
8007;SDS011;4049;49.468;11.200;2023-04-19T10:45:57;9.87;;;5.57;;
8007;SDS011;4049;49.468;11.200;2023-04-19T10:48:39;10.67;;;5.93;;
8007;SDS011;4049;49.468;11.200;2023-04-19T10:51:17;7.13;;;5.10;;
8007;SDS011;4049;49.468;11.200;2023-04-19T10:53:56;8.50;;;5.47;;
8007;SDS011;4049;49.468;11.200;2023-04-19T10:59:30;7.90;;;5.27;;
8007;SDS011;4049;49.468;11.200;2023-04-19T11:01:58;8.67;;;5.83;;
8007;SDS011;4049;49.468;11.200;2023-04-19T11:07:26;7.20;;;4.47;;
8007;SDS011;4049;49.468;11.200;2023-04-19T11:09:53;6.10;;;4.47;;
8007;SDS011;4049;49.468;11.200;2023-04-19T11:12:21;7.13;;;4.80;;
8007;SDS011;4049;49.468;11.200;2023-04-19T11:14:49;7.47;;;4.30;;
8007;SDS011;4049;49.468;11.200;2023-04-19T11:17:18;5.63;;;4.00;;
8007;SDS011;4049;49.468;11.200;2023-04-19T11:19:52;7.90;;;4.80;;
8007;SDS011;4049;49.468;11.200;2023-04-19T11:22:23;6.80;;;4.30;;
8007;SDS011;4049;49.468;11.200;2023-04-19T11:24:51;5.97;;;4.20;;
8007;SDS011;4049;49.468;11.200;2023-04-19T11:27:18;5.40;;;4.00;;
8007;SDS011;4049;49.468;11.200;2023-04-19T11:29:46;6.07;;;3.70;;
8007;SDS011;4049;49.468;11.200;2023-04-19T11:32:14;5.17;;;3.67;;
8007;SDS011;4049;49.468;11.200;2023-04-19T11:34:41;6.97;;;3.87;;
8007;SDS011;4049;49.468;11.200;2023-04-19T11:37:08;4.97;;;3.80;;
8007;SDS011;4049;49.468;11.200;2023-04-19T11:39:43;5.13;;;3.90;;
8007;SDS011;4049;49.468;11.200;2023-04-19T11:42:15;6.90;;;4.30;;
8007;SDS011;4049;49.468;11.200;2023-04-19T11:44:47;4.80;;;3.80;;
8007;SDS011;4049;49.468;11.200;2023-04-19T11:47:17;4.70;;;3.93;;
8007;SDS011;4049;49.468;11.200;2023-04-19T11:49:44;5.80;;;3.70;;
8007;SDS011;4049;49.468;11.200;2023-04-19T11:52:11;7.43;;;4.13;;
8007;SDS011;4049;49.468;11.200;2023-04-19T11:54:45;6.50;;;4.00;;
8007;SDS011;4049;49.468;11.200;2023-04-19T11:57:12;4.40;;;3.90;;
8007;SDS011;4049;49.468;11.200;2023-04-19T11:59:39;4.80;;;3.40;;
8007;SDS011;4049;49.468;11.200;2023-04-19T12:02:39;6.20;;;3.63;;
8007;SDS011;4049;49.468;11.200;2023-04-19T12:05:09;4.57;;;3.50;;
8007;SDS011;4049;49.468;11.200;2023-04-19T12:10:28;7.57;;;3.50;;
8007;SDS011;4049;49.468;11.200;2023-04-19T12:12:56;3.80;;;3.03;;
8007;SDS011;4049;49.468;11.200;2023-04-19T12:15:24;4.87;;;2.83;;
8007;SDS011;4049;49.468;11.200;2023-04-19T12:18:07;3.50;;;2.30;;
8007;SDS011;4049;49.468;11.200;2023-04-19T12:20:35;6.00;;;2.60;;
8007;SDS011;4049;49.468;11.200;2023-04-19T12:23:03;3.63;;;2.50;;
8007;SDS011;4049;49.468;11.200;2023-04-19T12:25:31;3.43;;;2.40;;
8007;SDS011;4049;49.468;11.200;2023-04-19T12:27:59;2.73;;;2.00;;
8007;SDS011;4049;49.468;11.200;2023-04-19T12:30:27;3.50;;;1.80;;
8007;SDS011;4049;49.468;11.200;2023-04-19T12:32:55;3.13;;;1.90;;
8007;SDS011;4049;49.468;11.200;2023-04-19T12:35:23;2.97;;;2.00;;
8007;SDS011;4049;49.468;11.200;2023-04-19T12:37:51;1.90;;;1.70;;
8007;SDS011;4049;49.468;11.200;2023-04-19T12:40:19;2.63;;;1.80;;
8007;SDS011;4049;49.468;11.200;2023-04-19T12:42:47;4.03;;;2.17;;
8007;SDS011;4049;49.468;11.200;2023-04-19T12:45:14;2.17;;;1.60;;
8007;SDS011;4049;49.468;11.200;2023-04-19T12:47:42;2.50;;;1.70;;
8007;SDS011;4049;49.468;11.200;2023-04-19T12:50:10;2.07;;;1.60;;
8007;SDS011;4049;49.468;11.200;2023-04-19T12:52:40;3.50;;;1.60;;
8007;SDS011;4049;49.468;11.200;2023-04-19T12:55:07;2.80;;;1.73;;
8007;SDS011;4049;49.468;11.200;2023-04-19T12:57:35;2.47;;;1.80;;
8007;SDS011;4049;49.468;11.200;2023-04-19T13:00:02;3.00;;;1.93;;
8007;SDS011;4049;49.468;11.200;2023-04-19T13:02:29;4.13;;;2.00;;
8007;SDS011;4049;49.468;11.200;2023-04-19T13:04:56;1.83;;;1.73;;
8007;SDS011;4049;49.468;11.200;2023-04-19T13:07:23;1.77;;;1.47;;
8007;SDS011;4049;49.468;11.200;2023-04-19T13:09:53;2.03;;;1.43;;
8007;SDS011;4049;49.468;11.200;2023-04-19T13:12:20;1.97;;;1.50;;
8007;SDS011;4049;49.468;11.200;2023-04-19T13:14:47;4.33;;;1.50;;
8007;SDS011;4049;49.468;11.200;2023-04-19T13:17:16;1.90;;;1.57;;
8007;SDS011;4049;49.468;11.200;2023-04-19T13:19:43;2.13;;;1.60;;
8007;SDS011;4049;49.468;11.200;2023-04-19T13:22:10;2.30;;;1.50;;
8007;SDS011;4049;49.468;11.200;2023-04-19T13:24:36;3.00;;;1.70;;
8007;SDS011;4049;49.468;11.200;2023-04-19T13:27:05;2.73;;;1.60;;
8007;SDS011;4049;49.468;11.200;2023-04-19T13:29:31;2.70;;;1.70;;
8007;SDS011;4049;49.468;11.200;2023-04-19T13:31:58;2.17;;;1.93;;
8007;SDS011;4049;49.468;11.200;2023-04-19T13:34:25;4.07;;;2.10;;
8007;SDS011;4049;49.468;11.200;2023-04-19T13:36:52;2.87;;;1.83;;
8007;SDS011;4049;49.468;11.200;2023-04-19T13:39:19;2.80;;;1.57;;
8007;SDS011;4049;49.468;11.200;2023-04-19T13:41:45;3.20;;;1.97;;
8007;SDS011;4049;49.468;11.200;2023-04-19T13:44:14;1.90;;;1.63;;
8007;SDS011;4049;49.468;11.200;2023-04-19T13:46:40;4.83;;;1.83;;
8007;SDS011;4049;49.468;11.200;2023-04-19T13:49:07;5.03;;;1.90;;
8007;SDS011;4049;49.468;11.200;2023-04-19T13:51:34;3.33;;;1.97;;
8007;SDS011;4049;49.468;11.200;2023-04-19T13:54:01;2.37;;;1.90;;
8007;SDS011;4049;49.468;11.200;2023-04-19T13:56:28;4.77;;;2.47;;
8007;SDS011;4049;49.468;11.200;2023-04-19T13:58:55;3.20;;;2.20;;
8007;SDS011;4049;49.468;11.200;2023-04-19T14:01:23;3.87;;;2.20;;
8007;SDS011;4049;49.468;11.200;2023-04-19T14:03:50;3.03;;;2.33;;
8007;SDS011;4049;49.468;11.200;2023-04-19T14:06:17;5.23;;;2.30;;
8007;SDS011;4049;49.468;11.200;2023-04-19T14:08:44;3.57;;;2.60;;
8007;SDS011;4049;49.468;11.200;2023-04-19T14:11:11;2.90;;;2.30;;
8007;SDS011;4049;49.468;11.200;2023-04-19T14:13:38;4.93;;;3.13;;
8007;SDS011;4049;49.468;11.200;2023-04-19T14:16:05;3.37;;;2.40;;
8007;SDS011;4049;49.468;11.200;2023-04-19T14:18:34;4.33;;;2.53;;
8007;SDS011;4049;49.468;11.200;2023-04-19T14:21:01;2.40;;;2.20;;
8007;SDS011;4049;49.468;11.200;2023-04-19T14:23:27;4.00;;;2.50;;
8007;SDS011;4049;49.468;11.200;2023-04-19T14:25:54;2.67;;;2.00;;
8007;SDS011;4049;49.468;11.200;2023-04-19T14:28:21;3.57;;;2.37;;
8007;SDS011;4049;49.468;11.200;2023-04-19T14:30:48;3.23;;;2.40;;
8007;SDS011;4049;49.468;11.200;2023-04-19T14:33:15;3.20;;;2.50;;
8007;SDS011;4049;49.468;11.200;2023-04-19T14:35:43;3.33;;;2.30;;
8007;SDS011;4049;49.468;11.200;2023-04-19T14:38:10;4.00;;;2.50;;
8007;SDS011;4049;49.468;11.200;2023-04-19T14:40:37;2.67;;;2.40;;
8007;SDS011;4049;49.468;11.200;2023-04-19T14:43:04;4.90;;;2.30;;
8007;SDS011;4049;49.468;11.200;2023-04-19T14:45:31;3.07;;;2.30;;
8007;SDS011;4049;49.468;11.200;2023-04-19T14:47:57;3.03;;;2.40;;
8007;SDS011;4049;49.468;11.200;2023-04-19T14:50:24;4.23;;;2.30;;
8007;SDS011;4049;49.468;11.200;2023-04-19T14:52:53;3.47;;;2.10;;
8007;SDS011;4049;49.468;11.200;2023-04-19T14:55:19;3.50;;;2.10;;
8007;SDS011;4049;49.468;11.200;2023-04-19T14:57:48;3.83;;;2.40;;
8007;SDS011;4049;49.468;11.200;2023-04-19T15:00:16;3.23;;;2.37;;
8007;SDS011;4049;49.468;11.200;2023-04-19T15:02:43;3.13;;;2.27;;
8007;SDS011;4049;49.468;11.200;2023-04-19T15:05:10;2.77;;;2.20;;
8007;SDS011;4049;49.468;11.200;2023-04-19T15:07:36;2.90;;;2.13;;
8007;SDS011;4049;49.468;11.200;2023-04-19T15:10:05;4.23;;;2.37;;